sensor_id;sensor_type;location;lat;lon;timestamp;P1;durP1;ratioP1;P2;durP2;ratioP2
31680;SDS011;18281;51.364;9.566;2023-06-10T00:00:43;6.80;;;5.13;;
31680;SDS011;18281;51.364;9.566;2023-06-10T00:03:09;9.20;;;5.28;;
31680;SDS011;18281;51.364;9.566;2023-06-10T00:05:35;6.63;;;4.65;;
31680;SDS011;18281;51.364;9.566;2023-06-10T00:08:03;6.05;;;4.88;;
31680;SDS011;18281;51.364;9.566;2023-06-10T00:10:33;5.32;;;4.53;;
31680;SDS011;18281;51.364;9.566;2023-06-10T00:13:00;6.20;;;5.03;;
31680;SDS011;18281;51.364;9.566;2023-06-10T00:15:27;6.18;;;4.88;;
31680;SDS011;18281;51.364;9.566;2023-06-10T00:17:52;6.32;;;4.93;;
31680;SDS011;18281;51.364;9.566;2023-06-10T00:20:20;9.90;;;5.50;;
31680;SDS011;18281;51.364;9.566;2023-06-10T00:22:48;6.38;;;5.60;;
31680;SDS011;18281;51.364;9.566;2023-06-10T00:25:14;5.70;;;4.65;;
31680;SDS011;18281;51.364;9.566;2023-06-10T00:27:40;6.38;;;5.13;;
31680;SDS011;18281;51.364;9.566;2023-06-10T00:30:05;7.65;;;5.63;;
31680;SDS011;18281;51.364;9.566;2023-06-10T00:32:35;6.10;;;5.35;;
31680;SDS011;18281;51.364;9.566;2023-06-10T00:35:01;7.20;;;5.13;;
31680;SDS011;18281;51.364;9.566;2023-06-10T00:37:30;6.18;;;5.57;;
31680;SDS011;18281;51.364;9.566;2023-06-10T00:39:55;9.60;;;5.93;;
31680;SDS011;18281;51.364;9.566;2023-06-10T00:42:21;6.20;;;5.28;;
31680;SDS011;18281;51.364;9.566;2023-06-10T00:44:49;9.13;;;6.07;;
31680;SDS011;18281;51.364;9.566;2023-06-10T00:47:15;6.10;;;5.47;;
31680;SDS011;18281;51.364;9.566;2023-06-10T00:49:40;9.15;;;5.80;;
31680;SDS011;18281;51.364;9.566;2023-06-10T00:52:06;7.05;;;6.18;;
31680;SDS011;18281;51.364;9.566;2023-06-10T00:54:32;7.57;;;5.78;;
31680;SDS011;18281;51.364;9.566;2023-06-10T00:57:00;7.22;;;5.55;;
31680;SDS011;18281;51.364;9.566;2023-06-10T00:59:28;7.53;;;5.85;;
31680;SDS011;18281;51.364;9.566;2023-06-10T01:01:54;11.82;;;6.82;;
31680;SDS011;18281;51.364;9.566;2023-06-10T01:04:21;8.95;;;6.82;;
31680;SDS011;18281;51.364;9.566;2023-06-10T01:09:42;6.95;;;5.72;;
31680;SDS011;18281;51.364;9.566;2023-06-10T01:12:17;8.02;;;5.63;;
31680;SDS011;18281;51.364;9.566;2023-06-10T01:14:47;10.55;;;6.47;;
31680;SDS011;18281;51.364;9.566;2023-06-10T01:17:13;7.55;;;5.75;;
31680;SDS011;18281;51.364;9.566;2023-06-10T01:19:41;7.80;;;5.38;;
31680;SDS011;18281;51.364;9.566;2023-06-10T01:22:08;6.72;;;5.20;;
31680;SDS011;18281;51.364;9.566;2023-06-10T01:24:36;8.25;;;5.32;;
31680;SDS011;18281;51.364;9.566;2023-06-10T01:27:05;10.30;;;5.63;;
31680;SDS011;18281;51.364;9.566;2023-06-10T01:29:40;9.15;;;5.20;;
31680;SDS011;18281;51.364;9.566;2023-06-10T01:32:30;5.53;;;5.00;;
31680;SDS011;18281;51.364;9.566;2023-06-10T01:35:00;7.82;;;5.03;;
31680;SDS011;18281;51.364;9.566;2023-06-10T01:37:27;7.95;;;5.25;;
31680;SDS011;18281;51.364;9.566;2023-06-10T01:39:55;6.32;;;5.10;;
31680;SDS011;18281;51.364;9.566;2023-06-10T01:42:23;9.40;;;5.20;;
31680;SDS011;18281;51.364;9.566;2023-06-10T01:44:49;5.80;;;4.78;;
31680;SDS011;18281;51.364;9.566;2023-06-10T01:47:14;7.15;;;5.30;;
31680;SDS011;18281;51.364;9.566;2023-06-10T01:49:40;7.55;;;5.32;;
31680;SDS011;18281;51.364;9.566;2023-06-10T01:52:05;10.10;;;5.45;;
31680;SDS011;18281;51.364;9.566;2023-06-10T01:54:31;6.45;;;5.43;;
31680;SDS011;18281;51.364;9.566;2023-06-10T01:56:57;8.48;;;5.45;;
31680;SDS011;18281;51.364;9.566;2023-06-10T01:59:22;8.05;;;5.78;;
31680;SDS011;18281;51.364;9.566;2023-06-10T02:01:47;7.95;;;5.93;;
31680;SDS011;18281;51.364;9.566;2023-06-10T02:04:13;8.80;;;6.13;;
31680;SDS011;18281;51.364;9.566;2023-06-10T02:06:38;8.85;;;6.05;;
31680;SDS011;18281;51.364;9.566;2023-06-10T02:09:03;8.57;;;6.15;;
31680;SDS011;18281;51.364;9.566;2023-06-10T02:11:29;8.13;;;5.78;;
31680;SDS011;18281;51.364;9.566;2023-06-10T02:13:54;6.82;;;5.65;;
31680;SDS011;18281;51.364;9.566;2023-06-10T02:16:20;9.43;;;6.18;;
31680;SDS011;18281;51.364;9.566;2023-06-10T02:18:46;11.50;;;6.35;;
31680;SDS011;18281;51.364;9.566;2023-06-10T02:21:12;8.27;;;5.63;;
31680;SDS011;18281;51.364;9.566;2023-06-10T02:23:37;8.48;;;6.28;;
31680;SDS011;18281;51.364;9.566;2023-06-10T02:26:03;7.53;;;5.78;;
31680;SDS011;18281;51.364;9.566;2023-06-10T02:28:28;6.13;;;5.20;;
31680;SDS011;18281;51.364;9.566;2023-06-10T02:30:54;7.65;;;6.13;;
31680;SDS011;18281;51.364;9.566;2023-06-10T02:33:19;7.82;;;5.50;;
31680;SDS011;18281;51.364;9.566;2023-06-10T02:35:44;6.47;;;5.32;;
31680;SDS011;18281;51.364;9.566;2023-06-10T02:38:10;8.70;;;5.68;;
31680;SDS011;18281;51.364;9.566;2023-06-10T02:40:35;10.55;;;6.22;;
31680;SDS011;18281;51.364;9.566;2023-06-10T02:43:01;10.18;;;6.13;;
31680;SDS011;18281;51.364;9.566;2023-06-10T02:45:26;8.52;;;5.47;;
31680;SDS011;18281;51.364;9.566;2023-06-10T02:47:51;7.47;;;5.75;;
31680;SDS011;18281;51.364;9.566;2023-06-10T02:50:17;6.40;;;5.70;;
31680;SDS011;18281;51.364;9.566;2023-06-10T02:52:43;6.30;;;5.70;;
31680;SDS011;18281;51.364;9.566;2023-06-10T02:55:08;9.27;;;5.50;;
31680;SDS011;18281;51.364;9.566;2023-06-10T02:57:34;7.07;;;5.32;;
31680;SDS011;18281;51.364;9.566;2023-06-10T02:59:59;9.77;;;5.13;;
31680;SDS011;18281;51.364;9.566;2023-06-10T03:02:26;8.35;;;5.32;;
31680;SDS011;18281;51.364;9.566;2023-06-10T03:04:54;7.22;;;5.50;;
31680;SDS011;18281;51.364;9.566;2023-06-10T03:07:22;7.43;;;5.13;;
31680;SDS011;18281;51.364;9.566;2023-06-10T03:09:48;6.10;;;5.25;;
31680;SDS011;18281;51.364;9.566;2023-06-10T03:12:14;6.43;;;5.50;;
31680;SDS011;18281;51.364;9.566;2023-06-10T03:14:40;6.90;;;5.25;;
31680;SDS011;18281;51.364;9.566;2023-06-10T03:17:06;7.20;;;5.65;;
31680;SDS011;18281;51.364;9.566;2023-06-10T03:19:33;7.97;;;5.00;;
31680;SDS011;18281;51.364;9.566;2023-06-10T03:22:12;6.38;;;5.75;;
31680;SDS011;18281;51.364;9.566;2023-06-10T03:24:39;8.35;;;5.95;;
31680;SDS011;18281;51.364;9.566;2023-06-10T03:27:11;9.50;;;5.95;;
31680;SDS011;18281;51.364;9.566;2023-06-10T03:29:38;10.00;;;5.75;;
31680;SDS011;18281;51.364;9.566;2023-06-10T03:32:04;7.22;;;6.03;;
31680;SDS011;18281;51.364;9.566;2023-06-10T03:34:30;7.60;;;5.57;;
31680;SDS011;18281;51.364;9.566;2023-06-10T03:36:56;7.35;;;5.55;;
31680;SDS011;18281;51.364;9.566;2023-06-10T03:39:22;8.57;;;5.57;;
31680;SDS011;18281;51.364;9.566;2023-06-10T03:41:48;6.97;;;5.57;;
31680;SDS011;18281;51.364;9.566;2023-06-10T03:44:14;5.90;;;5.30;;
31680;SDS011;18281;51.364;9.566;2023-06-10T03:46:40;7.15;;;5.57;;
31680;SDS011;18281;51.364;9.566;2023-06-10T03:49:05;7.90;;;5.47;;
31680;SDS011;18281;51.364;9.566;2023-06-10T03:51:30;8.15;;;5.68;;
31680;SDS011;18281;51.364;9.566;2023-06-10T03:53:56;7.45;;;5.30;;
31680;SDS011;18281;51.364;9.566;2023-06-10T03:56:21;7.28;;;6.07;;
31680;SDS011;18281;51.364;9.566;2023-06-10T03:58:46;6.72;;;5.60;;
31680;SDS011;18281;51.364;9.566;2023-06-10T04:01:12;6.35;;;5.07;;
31680;SDS011;18281;51.364;9.566;2023-06-10T04:03:43;7.53;;;5.32;;
31680;SDS011;18281;51.364;9.566;2023-06-10T04:06:08;8.02;;;5.05;;
31680;SDS011;18281;51.364;9.566;2023-06-10T04:08:34;5.88;;;5.00;;
31680;SDS011;18281;51.364;9.566;2023-06-10T04:10:59;6.40;;;5.72;;
31680;SDS011;18281;51.364;9.566;2023-06-10T04:13:24;6.28;;;5.13;;
31680;SDS011;18281;51.364;9.566;2023-06-10T04:15:50;8.10;;;6.45;;
31680;SDS011;18281;51.364;9.566;2023-06-10T04:18:16;7.65;;;5.50;;
31680;SDS011;18281;51.364;9.566;2023-06-10T04:20:42;6.72;;;5.22;;
31680;SDS011;18281;51.364;9.566;2023-06-10T04:23:09;7.90;;;5.60;;
31680;SDS011;18281;51.364;9.566;2023-06-10T04:25:34;8.40;;;5.72;;
31680;SDS011;18281;51.364;9.566;2023-06-10T04:28:00;6.65;;;5.63;;
31680;SDS011;18281;51.364;9.566;2023-06-10T04:30:25;8.10;;;4.95;;
31680;SDS011;18281;51.364;9.566;2023-06-10T04:32:50;6.70;;;6.00;;
31680;SDS011;18281;51.364;9.566;2023-06-10T04:35:17;8.27;;;5.30;;
31680;SDS011;18281;51.364;9.566;2023-06-10T04:37:42;8.50;;;5.80;;
31680;SDS011;18281;51.364;9.566;2023-06-10T04:40:08;7.68;;;5.38;;
31680;SDS011;18281;51.364;9.566;2023-06-10T04:42:34;8.70;;;5.25;;
31680;SDS011;18281;51.364;9.566;2023-06-10T04:44:59;6.22;;;5.63;;
31680;SDS011;18281;51.364;9.566;2023-06-10T04:47:25;7.40;;;5.40;;
31680;SDS011;18281;51.364;9.566;2023-06-10T04:49:51;7.72;;;5.28;;
31680;SDS011;18281;51.364;9.566;2023-06-10T04:52:17;7.40;;;5.50;;
31680;SDS011;18281;51.364;9.566;2023-06-10T04:54:42;7.93;;;5.88;;
31680;SDS011;18281;51.364;9.566;2023-06-10T04:57:08;7.13;;;5.20;;
31680;SDS011;18281;51.364;9.566;2023-06-10T04:59:33;6.35;;;5.63;;
31680;SDS011;18281;51.364;9.566;2023-06-10T05:02:02;6.53;;;5.00;;
31680;SDS011;18281;51.364;9.566;2023-06-10T05:04:28;6.00;;;5.40;;
31680;SDS011;18281;51.364;9.566;2023-06-10T05:06:54;6.68;;;5.20;;
31680;SDS011;18281;51.364;9.566;2023-06-10T05:09:20;10.35;;;5.50;;
31680;SDS011;18281;51.364;9.566;2023-06-10T05:11:45;10.73;;;5.55;;
31680;SDS011;18281;51.364;9.566;2023-06-10T05:14:11;6.07;;;5.03;;
31680;SDS011;18281;51.364;9.566;2023-06-10T05:16:36;7.53;;;5.50;;
31680;SDS011;18281;51.364;9.566;2023-06-10T05:19:02;7.65;;;4.85;;
31680;SDS011;18281;51.364;9.566;2023-06-10T05:21:28;7.10;;;5.03;;
31680;SDS011;18281;51.364;9.566;2023-06-10T05:23:54;6.05;;;5.07;;
31680;SDS011;18281;51.364;9.566;2023-06-10T05:26:19;5.65;;;5.03;;
31680;SDS011;18281;51.364;9.566;2023-06-10T05:28:45;8.48;;;4.60;;
31680;SDS011;18281;51.364;9.566;2023-06-10T05:31:10;5.25;;;4.75;;
31680;SDS011;18281;51.364;9.566;2023-06-10T05:33:35;7.40;;;5.13;;
31680;SDS011;18281;51.364;9.566;2023-06-10T05:36:01;5.03;;;4.53;;
31680;SDS011;18281;51.364;9.566;2023-06-10T05:38:27;7.75;;;4.50;;
31680;SDS011;18281;51.364;9.566;2023-06-10T05:40:52;6.45;;;5.30;;
31680;SDS011;18281;51.364;9.566;2023-06-10T05:43:17;4.32;;;3.95;;
31680;SDS011;18281;51.364;9.566;2023-06-10T05:45:43;6.93;;;4.00;;
31680;SDS011;18281;51.364;9.566;2023-06-10T05:48:08;6.97;;;4.07;;
31680;SDS011;18281;51.364;9.566;2023-06-10T05:50:34;4.80;;;3.88;;
31680;SDS011;18281;51.364;9.566;2023-06-10T05:55:28;8.43;;;4.47;;
31680;SDS011;18281;51.364;9.566;2023-06-10T05:58:00;7.10;;;4.85;;
31680;SDS011;18281;51.364;9.566;2023-06-10T06:00:26;5.13;;;4.63;;
31680;SDS011;18281;51.364;9.566;2023-06-10T06:02:52;10.02;;;4.60;;
31680;SDS011;18281;51.364;9.566;2023-06-10T06:05:19;6.18;;;4.90;;
31680;SDS011;18281;51.364;9.566;2023-06-10T06:07:44;5.85;;;4.72;;
31680;SDS011;18281;51.364;9.566;2023-06-10T06:10:09;5.30;;;4.03;;
31680;SDS011;18281;51.364;9.566;2023-06-10T06:12:35;6.30;;;4.28;;
31680;SDS011;18281;51.364;9.566;2023-06-10T06:15:00;5.43;;;3.80;;
31680;SDS011;18281;51.364;9.566;2023-06-10T06:17:25;7.32;;;4.15;;
31680;SDS011;18281;51.364;9.566;2023-06-10T06:19:51;6.22;;;4.10;;
31680;SDS011;18281;51.364;9.566;2023-06-10T06:22:16;5.05;;;4.32;;
31680;SDS011;18281;51.364;9.566;2023-06-10T06:24:46;5.97;;;4.20;;
31680;SDS011;18281;51.364;9.566;2023-06-10T06:27:11;8.10;;;4.43;;
31680;SDS011;18281;51.364;9.566;2023-06-10T06:29:37;7.78;;;4.07;;
31680;SDS011;18281;51.364;9.566;2023-06-10T06:32:03;6.70;;;3.92;;
31680;SDS011;18281;51.364;9.566;2023-06-10T06:34:28;5.07;;;4.00;;
31680;SDS011;18281;51.364;9.566;2023-06-10T06:36:54;5.03;;;3.65;;
31680;SDS011;18281;51.364;9.566;2023-06-10T06:39:19;6.43;;;4.22;;
31680;SDS011;18281;51.364;9.566;2023-06-10T06:41:44;6.75;;;3.40;;
31680;SDS011;18281;51.364;9.566;2023-06-10T06:44:10;5.20;;;3.22;;
31680;SDS011;18281;51.364;9.566;2023-06-10T06:46:35;5.63;;;3.45;;
31680;SDS011;18281;51.364;9.566;2023-06-10T06:49:00;5.03;;;3.20;;
31680;SDS011;18281;51.364;9.566;2023-06-10T06:51:26;7.18;;;3.47;;
31680;SDS011;18281;51.364;9.566;2023-06-10T06:53:51;4.15;;;3.35;;
31680;SDS011;18281;51.364;9.566;2023-06-10T06:56:19;8.55;;;3.40;;
31680;SDS011;18281;51.364;9.566;2023-06-10T06:58:46;4.35;;;3.05;;
31680;SDS011;18281;51.364;9.566;2023-06-10T07:01:11;5.78;;;2.92;;
31680;SDS011;18281;51.364;9.566;2023-06-10T07:03:37;4.75;;;2.78;;
31680;SDS011;18281;51.364;9.566;2023-06-10T07:06:02;7.65;;;2.83;;
31680;SDS011;18281;51.364;9.566;2023-06-10T07:08:28;6.43;;;2.80;;
31680;SDS011;18281;51.364;9.566;2023-06-10T07:11:15;3.92;;;2.88;;
31680;SDS011;18281;51.364;9.566;2023-06-10T07:13:40;6.25;;;3.80;;
31680;SDS011;18281;51.364;9.566;2023-06-10T07:16:06;4.72;;;3.05;;
31680;SDS011;18281;51.364;9.566;2023-06-10T07:18:31;7.10;;;3.60;;
31680;SDS011;18281;51.364;9.566;2023-06-10T07:20:57;6.05;;;2.90;;
31680;SDS011;18281;51.364;9.566;2023-06-10T07:23:22;3.15;;;2.85;;
31680;SDS011;18281;51.364;9.566;2023-06-10T07:25:48;5.55;;;3.05;;
31680;SDS011;18281;51.364;9.566;2023-06-10T07:28:13;5.25;;;2.97;;
31680;SDS011;18281;51.364;9.566;2023-06-10T07:30:38;3.33;;;2.88;;
31680;SDS011;18281;51.364;9.566;2023-06-10T07:33:04;4.68;;;2.97;;
31680;SDS011;18281;51.364;9.566;2023-06-10T07:35:32;3.77;;;3.10;;
31680;SDS011;18281;51.364;9.566;2023-06-10T07:37:57;5.97;;;3.33;;
31680;SDS011;18281;51.364;9.566;2023-06-10T07:40:23;6.03;;;2.90;;
31680;SDS011;18281;51.364;9.566;2023-06-10T07:42:49;4.50;;;2.80;;
31680;SDS011;18281;51.364;9.566;2023-06-10T07:45:14;5.55;;;3.22;;
31680;SDS011;18281;51.364;9.566;2023-06-10T07:47:40;10.00;;;4.88;;
31680;SDS011;18281;51.364;9.566;2023-06-10T07:50:05;8.52;;;3.30;;
31680;SDS011;18281;51.364;9.566;2023-06-10T07:52:31;6.15;;;3.25;;
31680;SDS011;18281;51.364;9.566;2023-06-10T07:54:56;7.20;;;2.80;;
31680;SDS011;18281;51.364;9.566;2023-06-10T07:57:21;4.53;;;3.17;;
31680;SDS011;18281;51.364;9.566;2023-06-10T07:59:47;6.20;;;3.13;;
31680;SDS011;18281;51.364;9.566;2023-06-10T08:02:12;8.85;;;3.10;;
31680;SDS011;18281;51.364;9.566;2023-06-10T08:04:38;7.35;;;3.00;;
31680;SDS011;18281;51.364;9.566;2023-06-10T08:07:03;5.10;;;3.20;;
31680;SDS011;18281;51.364;9.566;2023-06-10T08:09:29;6.35;;;3.10;;
31680;SDS011;18281;51.364;9.566;2023-06-10T08:11:54;5.88;;;3.33;;
31680;SDS011;18281;51.364;9.566;2023-06-10T08:14:20;5.05;;;4.00;;
31680;SDS011;18281;51.364;9.566;2023-06-10T08:16:46;6.15;;;3.63;;
31680;SDS011;18281;51.364;9.566;2023-06-10T08:19:11;6.40;;;3.25;;
31680;SDS011;18281;51.364;9.566;2023-06-10T08:21:37;7.47;;;3.25;;
31680;SDS011;18281;51.364;9.566;2023-06-10T08:24:04;8.15;;;3.30;;
31680;SDS011;18281;51.364;9.566;2023-06-10T08:26:31;5.63;;;2.90;;
31680;SDS011;18281;51.364;9.566;2023-06-10T08:28:56;5.03;;;2.75;;
31680;SDS011;18281;51.364;9.566;2023-06-10T08:31:21;8.73;;;3.60;;
31680;SDS011;18281;51.364;9.566;2023-06-10T08:33:47;6.78;;;3.60;;
31680;SDS011;18281;51.364;9.566;2023-06-10T08:36:12;13.80;;;4.00;;
31680;SDS011;18281;51.364;9.566;2023-06-10T08:38:37;7.53;;;3.20;;
31680;SDS011;18281;51.364;9.566;2023-06-10T08:41:03;5.35;;;3.42;;
31680;SDS011;18281;51.364;9.566;2023-06-10T08:43:39;5.97;;;3.30;;
31680;SDS011;18281;51.364;9.566;2023-06-10T08:46:09;5.25;;;3.00;;
31680;SDS011;18281;51.364;9.566;2023-06-10T08:48:36;7.43;;;4.18;;
31680;SDS011;18281;51.364;9.566;2023-06-10T08:51:06;6.57;;;3.50;;
31680;SDS011;18281;51.364;9.566;2023-06-10T08:53:36;7.32;;;3.30;;
31680;SDS011;18281;51.364;9.566;2023-06-10T08:56:04;4.88;;;3.38;;
31680;SDS011;18281;51.364;9.566;2023-06-10T08:58:32;6.82;;;3.33;;
31680;SDS011;18281;51.364;9.566;2023-06-10T09:01:06;6.85;;;3.72;;
31680;SDS011;18281;51.364;9.566;2023-06-10T09:03:33;6.45;;;3.67;;
31680;SDS011;18281;51.364;9.566;2023-06-10T09:06:00;5.72;;;3.55;;
31680;SDS011;18281;51.364;9.566;2023-06-10T09:08:26;5.15;;;3.20;;
31680;SDS011;18281;51.364;9.566;2023-06-10T09:10:52;6.35;;;3.70;;
31680;SDS011;18281;51.364;9.566;2023-06-10T09:13:17;4.13;;;3.05;;
31680;SDS011;18281;51.364;9.566;2023-06-10T09:15:43;7.75;;;3.42;;
31680;SDS011;18281;51.364;9.566;2023-06-10T09:18:10;4.63;;;3.20;;
31680;SDS011;18281;51.364;9.566;2023-06-10T09:20:38;5.72;;;2.83;;
31680;SDS011;18281;51.364;9.566;2023-06-10T09:23:03;7.07;;;3.60;;
31680;SDS011;18281;51.364;9.566;2023-06-10T09:25:36;5.78;;;3.25;;
31680;SDS011;18281;51.364;9.566;2023-06-10T09:28:03;6.25;;;3.90;;
31680;SDS011;18281;51.364;9.566;2023-06-10T09:30:30;5.88;;;3.28;;
31680;SDS011;18281;51.364;9.566;2023-06-10T09:33:00;10.75;;;4.07;;
31680;SDS011;18281;51.364;9.566;2023-06-10T09:35:28;6.50;;;3.80;;
31680;SDS011;18281;51.364;9.566;2023-06-10T09:37:55;5.95;;;3.45;;
31680;SDS011;18281;51.364;9.566;2023-06-10T09:40:25;10.13;;;3.78;;
31680;SDS011;18281;51.364;9.566;2023-06-10T09:42:56;5.78;;;3.00;;
31680;SDS011;18281;51.364;9.566;2023-06-10T09:45:23;9.38;;;3.40;;
31680;SDS011;18281;51.364;9.566;2023-06-10T09:47:52;8.90;;;3.58;;
31680;SDS011;18281;51.364;9.566;2023-06-10T09:50:18;7.18;;;4.00;;
31680;SDS011;18281;51.364;9.566;2023-06-10T09:52:45;6.55;;;3.30;;
31680;SDS011;18281;51.364;9.566;2023-06-10T09:55:11;11.98;;;4.15;;
31680;SDS011;18281;51.364;9.566;2023-06-10T09:57:36;8.70;;;4.45;;
31680;SDS011;18281;51.364;9.566;2023-06-10T10:00:04;7.60;;;3.35;;
31680;SDS011;18281;51.364;9.566;2023-06-10T10:02:36;7.18;;;3.50;;
31680;SDS011;18281;51.364;9.566;2023-06-10T10:05:15;7.07;;;3.80;;
31680;SDS011;18281;51.364;9.566;2023-06-10T10:07:42;7.60;;;3.97;;
31680;SDS011;18281;51.364;9.566;2023-06-10T10:10:08;5.72;;;3.63;;
31680;SDS011;18281;51.364;9.566;2023-06-10T10:12:35;4.93;;;3.33;;
31680;SDS011;18281;51.364;9.566;2023-06-10T10:15:01;5.63;;;3.70;;
31680;SDS011;18281;51.364;9.566;2023-06-10T10:17:27;12.65;;;3.55;;
31680;SDS011;18281;51.364;9.566;2023-06-10T10:20:04;7.78;;;3.85;;
31680;SDS011;18281;51.364;9.566;2023-06-10T10:22:40;11.32;;;3.78;;
31680;SDS011;18281;51.364;9.566;2023-06-10T10:25:10;8.80;;;4.03;;
31680;SDS011;18281;51.364;9.566;2023-06-10T10:27:40;5.63;;;3.83;;
31680;SDS011;18281;51.364;9.566;2023-06-10T10:30:10;7.60;;;3.83;;
31680;SDS011;18281;51.364;9.566;2023-06-10T10:35:08;6.70;;;3.70;;
31680;SDS011;18281;51.364;9.566;2023-06-10T10:37:41;9.15;;;3.72;;
31680;SDS011;18281;51.364;9.566;2023-06-10T10:40:07;5.35;;;3.40;;
31680;SDS011;18281;51.364;9.566;2023-06-10T10:42:33;12.55;;;3.70;;
31680;SDS011;18281;51.364;9.566;2023-06-10T10:45:00;11.05;;;4.05;;
31680;SDS011;18281;51.364;9.566;2023-06-10T10:47:27;6.38;;;4.07;;
31680;SDS011;18281;51.364;9.566;2023-06-10T10:49:56;8.00;;;3.53;;
31680;SDS011;18281;51.364;9.566;2023-06-10T10:52:25;4.80;;;3.25;;
31680;SDS011;18281;51.364;9.566;2023-06-10T10:54:53;4.18;;;3.33;;
31680;SDS011;18281;51.364;9.566;2023-06-10T10:57:20;5.88;;;3.75;;
31680;SDS011;18281;51.364;9.566;2023-06-10T10:59:54;7.82;;;4.60;;
31680;SDS011;18281;51.364;9.566;2023-06-10T11:02:32;4.45;;;3.15;;
31680;SDS011;18281;51.364;9.566;2023-06-10T11:05:03;8.05;;;3.80;;
31680;SDS011;18281;51.364;9.566;2023-06-10T11:07:33;4.88;;;3.97;;
31680;SDS011;18281;51.364;9.566;2023-06-10T11:10:06;4.78;;;3.72;;
31680;SDS011;18281;51.364;9.566;2023-06-10T11:12:42;4.60;;;3.55;;
31680;SDS011;18281;51.364;9.566;2023-06-10T11:15:23;5.18;;;3.60;;
31680;SDS011;18281;51.364;9.566;2023-06-10T11:23:51;8.27;;;3.55;;
31680;SDS011;18281;51.364;9.566;2023-06-10T11:26:13;4.68;;;3.42;;
31680;SDS011;18281;51.364;9.566;2023-06-10T11:31:22;6.63;;;3.65;;
31680;SDS011;18281;51.364;9.566;2023-06-10T11:33:53;5.10;;;3.75;;
31680;SDS011;18281;51.364;9.566;2023-06-10T11:36:20;5.63;;;3.38;;
31680;SDS011;18281;51.364;9.566;2023-06-10T11:38:46;7.60;;;3.85;;
31680;SDS011;18281;51.364;9.566;2023-06-10T11:41:11;5.90;;;3.65;;
31680;SDS011;18281;51.364;9.566;2023-06-10T11:43:44;7.20;;;3.80;;
31680;SDS011;18281;51.364;9.566;2023-06-10T11:46:11;6.07;;;3.72;;
31680;SDS011;18281;51.364;9.566;2023-06-10T11:48:37;5.82;;;3.75;;
31680;SDS011;18281;51.364;9.566;2023-06-10T11:51:06;5.80;;;3.85;;
31680;SDS011;18281;51.364;9.566;2023-06-10T11:53:32;5.90;;;3.53;;
31680;SDS011;18281;51.364;9.566;2023-06-10T11:55:58;8.88;;;3.72;;
31680;SDS011;18281;51.364;9.566;2023-06-10T11:58:23;5.88;;;3.50;;
31680;SDS011;18281;51.364;9.566;2023-06-10T12:00:55;5.65;;;3.58;;
31680;SDS011;18281;51.364;9.566;2023-06-10T12:03:23;4.63;;;3.30;;
31680;SDS011;18281;51.364;9.566;2023-06-10T12:05:59;5.05;;;3.90;;
31680;SDS011;18281;51.364;9.566;2023-06-10T12:08:25;4.40;;;3.70;;
31680;SDS011;18281;51.364;9.566;2023-06-10T12:10:52;5.97;;;3.70;;
31680;SDS011;18281;51.364;9.566;2023-06-10T12:13:18;6.53;;;4.00;;
31680;SDS011;18281;51.364;9.566;2023-06-10T12:15:44;7.38;;;3.90;;
31680;SDS011;18281;51.364;9.566;2023-06-10T12:18:19;6.13;;;3.63;;
31680;SDS011;18281;51.364;9.566;2023-06-10T12:20:46;3.95;;;3.53;;
31680;SDS011;18281;51.364;9.566;2023-06-10T12:23:13;5.82;;;3.58;;
31680;SDS011;18281;51.364;9.566;2023-06-10T12:25:39;10.90;;;3.58;;
31680;SDS011;18281;51.364;9.566;2023-06-10T12:28:16;5.82;;;3.70;;
31680;SDS011;18281;51.364;9.566;2023-06-10T12:30:42;5.63;;;3.22;;
31680;SDS011;18281;51.364;9.566;2023-06-10T12:33:15;4.90;;;3.30;;
31680;SDS011;18281;51.364;9.566;2023-06-10T12:35:46;7.05;;;3.50;;
31680;SDS011;18281;51.364;9.566;2023-06-10T12:38:23;5.45;;;3.22;;
31680;SDS011;18281;51.364;9.566;2023-06-10T12:40:49;12.70;;;3.58;;
31680;SDS011;18281;51.364;9.566;2023-06-10T12:43:19;3.97;;;3.55;;
31680;SDS011;18281;51.364;9.566;2023-06-10T12:45:46;12.32;;;3.50;;
31680;SDS011;18281;51.364;9.566;2023-06-10T12:48:12;7.47;;;3.13;;
31680;SDS011;18281;51.364;9.566;2023-06-10T12:50:47;3.50;;;3.20;;
31680;SDS011;18281;51.364;9.566;2023-06-10T12:53:16;3.80;;;3.17;;
31680;SDS011;18281;51.364;9.566;2023-06-10T12:55:41;4.95;;;2.88;;
31680;SDS011;18281;51.364;9.566;2023-06-10T12:58:07;5.55;;;3.25;;
31680;SDS011;18281;51.364;9.566;2023-06-10T13:00:32;4.13;;;3.17;;
31680;SDS011;18281;51.364;9.566;2023-06-10T13:03:00;5.78;;;3.33;;
31680;SDS011;18281;51.364;9.566;2023-06-10T13:05:27;10.02;;;3.60;;
31680;SDS011;18281;51.364;9.566;2023-06-10T13:07:53;9.82;;;3.47;;
31680;SDS011;18281;51.364;9.566;2023-06-10T13:10:20;7.57;;;2.90;;
31680;SDS011;18281;51.364;9.566;2023-06-10T13:12:46;5.07;;;3.50;;
31680;SDS011;18281;51.364;9.566;2023-06-10T13:15:11;3.38;;;2.80;;
31680;SDS011;18281;51.364;9.566;2023-06-10T13:17:37;3.92;;;3.17;;
31680;SDS011;18281;51.364;9.566;2023-06-10T13:20:05;4.00;;;2.88;;
31680;SDS011;18281;51.364;9.566;2023-06-10T13:22:32;4.70;;;3.15;;
31680;SDS011;18281;51.364;9.566;2023-06-10T13:25:00;5.25;;;3.20;;
31680;SDS011;18281;51.364;9.566;2023-06-10T13:27:26;4.78;;;2.78;;
31680;SDS011;18281;51.364;9.566;2023-06-10T13:29:52;4.65;;;2.53;;
31680;SDS011;18281;51.364;9.566;2023-06-10T13:32:17;3.95;;;2.90;;
31680;SDS011;18281;51.364;9.566;2023-06-10T13:34:43;3.15;;;2.85;;
31680;SDS011;18281;51.364;9.566;2023-06-10T13:37:08;6.43;;;3.10;;
31680;SDS011;18281;51.364;9.566;2023-06-10T13:39:33;3.47;;;2.58;;
31680;SDS011;18281;51.364;9.566;2023-06-10T13:41:59;3.92;;;2.67;;
31680;SDS011;18281;51.364;9.566;2023-06-10T13:44:24;5.00;;;2.88;;
31680;SDS011;18281;51.364;9.566;2023-06-10T13:46:50;4.90;;;2.80;;
31680;SDS011;18281;51.364;9.566;2023-06-10T13:49:15;4.28;;;2.60;;
31680;SDS011;18281;51.364;9.566;2023-06-10T13:51:41;3.88;;;2.78;;
31680;SDS011;18281;51.364;9.566;2023-06-10T13:54:06;9.13;;;2.55;;
31680;SDS011;18281;51.364;9.566;2023-06-10T13:56:31;5.28;;;2.70;;
31680;SDS011;18281;51.364;9.566;2023-06-10T13:59:02;5.22;;;2.45;;
31680;SDS011;18281;51.364;9.566;2023-06-10T14:01:28;3.35;;;3.05;;
31680;SDS011;18281;51.364;9.566;2023-06-10T14:03:53;2.92;;;2.63;;
31680;SDS011;18281;51.364;9.566;2023-06-10T14:06:21;3.20;;;2.90;;
31680;SDS011;18281;51.364;9.566;2023-06-10T14:08:47;4.85;;;2.60;;
31680;SDS011;18281;51.364;9.566;2023-06-10T14:11:12;7.07;;;2.90;;
31680;SDS011;18281;51.364;9.566;2023-06-10T14:13:38;4.28;;;2.88;;
31680;SDS011;18281;51.364;9.566;2023-06-10T14:16:04;5.47;;;3.05;;
31680;SDS011;18281;51.364;9.566;2023-06-10T14:18:32;3.87;;;2.63;;
31680;SDS011;18281;51.364;9.566;2023-06-10T14:20:57;3.83;;;2.92;;
31680;SDS011;18281;51.364;9.566;2023-06-10T14:23:22;4.20;;;2.72;;
31680;SDS011;18281;51.364;9.566;2023-06-10T14:25:49;6.38;;;2.67;;
31680;SDS011;18281;51.364;9.566;2023-06-10T14:28:15;4.10;;;2.80;;
31680;SDS011;18281;51.364;9.566;2023-06-10T14:30:40;7.68;;;2.95;;
31680;SDS011;18281;51.364;9.566;2023-06-10T14:33:05;5.47;;;3.00;;
31680;SDS011;18281;51.364;9.566;2023-06-10T14:35:31;3.47;;;3.17;;
31680;SDS011;18281;51.364;9.566;2023-06-10T14:37:56;5.30;;;3.30;;
31680;SDS011;18281;51.364;9.566;2023-06-10T14:40:21;4.55;;;2.92;;
31680;SDS011;18281;51.364;9.566;2023-06-10T14:42:49;4.47;;;3.20;;
31680;SDS011;18281;51.364;9.566;2023-06-10T14:45:14;7.25;;;3.08;;
31680;SDS011;18281;51.364;9.566;2023-06-10T14:47:40;5.80;;;3.13;;
31680;SDS011;18281;51.364;9.566;2023-06-10T14:50:05;4.65;;;3.35;;
31680;SDS011;18281;51.364;9.566;2023-06-10T14:52:31;5.68;;;3.33;;
31680;SDS011;18281;51.364;9.566;2023-06-10T14:54:56;3.78;;;3.45;;
31680;SDS011;18281;51.364;9.566;2023-06-10T14:57:22;4.38;;;3.05;;
31680;SDS011;18281;51.364;9.566;2023-06-10T14:59:47;4.40;;;3.20;;
31680;SDS011;18281;51.364;9.566;2023-06-10T15:02:13;6.72;;;3.30;;